sensor_id;sensor_type;location;lat;lon;timestamp;P1;durP1;ratioP1;P2;durP2;ratioP2
69030;SDS011;56083;48.774;8.942;2023-07-02T00:00:58;5.65;;;3.42;;
69030;SDS011;56083;48.774;8.942;2023-07-02T00:03:24;5.00;;;3.40;;
69030;SDS011;56083;48.774;8.942;2023-07-02T00:05:50;5.00;;;2.90;;
69030;SDS011;56083;48.774;8.942;2023-07-02T00:08:19;6.60;;;3.70;;
69030;SDS011;56083;48.774;8.942;2023-07-02T00:10:45;4.75;;;3.30;;
69030;SDS011;56083;48.774;8.942;2023-07-02T00:13:11;10.75;;;4.07;;
69030;SDS011;56083;48.774;8.942;2023-07-02T00:15:36;6.78;;;3.53;;
69030;SDS011;56083;48.774;8.942;2023-07-02T00:18:02;7.32;;;3.80;;
69030;SDS011;56083;48.774;8.942;2023-07-02T00:20:27;7.70;;;3.70;;
69030;SDS011;56083;48.774;8.942;2023-07-02T00:22:55;9.20;;;3.47;;
69030;SDS011;56083;48.774;8.942;2023-07-02T00:25:21;5.82;;;3.30;;
69030;SDS011;56083;48.774;8.942;2023-07-02T00:27:47;11.95;;;3.15;;
69030;SDS011;56083;48.774;8.942;2023-07-02T00:30:12;5.72;;;3.40;;
69030;SDS011;56083;48.774;8.942;2023-07-02T00:32:38;7.38;;;3.20;;
69030;SDS011;56083;48.774;8.942;2023-07-02T00:35:04;6.18;;;3.75;;
69030;SDS011;56083;48.774;8.942;2023-07-02T00:37:30;5.78;;;3.55;;
69030;SDS011;56083;48.774;8.942;2023-07-02T00:39:56;7.00;;;3.83;;
69030;SDS011;56083;48.774;8.942;2023-07-02T00:42:22;9.32;;;3.65;;
69030;SDS011;56083;48.774;8.942;2023-07-02T00:44:48;5.80;;;3.80;;
69030;SDS011;56083;48.774;8.942;2023-07-02T00:47:16;4.65;;;3.70;;
69030;SDS011;56083;48.774;8.942;2023-07-02T00:49:41;8.05;;;3.78;;
69030;SDS011;56083;48.774;8.942;2023-07-02T00:52:07;8.60;;;3.50;;
69030;SDS011;56083;48.774;8.942;2023-07-02T00:54:32;6.85;;;3.38;;
69030;SDS011;56083;48.774;8.942;2023-07-02T00:56:58;8.30;;;3.97;;
69030;SDS011;56083;48.774;8.942;2023-07-02T00:59:27;6.53;;;3.65;;
69030;SDS011;56083;48.774;8.942;2023-07-02T01:01:54;10.60;;;4.30;;
69030;SDS011;56083;48.774;8.942;2023-07-02T01:04:22;10.75;;;4.13;;
69030;SDS011;56083;48.774;8.942;2023-07-02T01:06:52;7.63;;;3.80;;
69030;SDS011;56083;48.774;8.942;2023-07-02T01:09:22;5.85;;;4.25;;
69030;SDS011;56083;48.774;8.942;2023-07-02T01:12:02;9.85;;;4.45;;
69030;SDS011;56083;48.774;8.942;2023-07-02T01:14:33;12.48;;;4.35;;
69030;SDS011;56083;48.774;8.942;2023-07-02T01:17:04;7.10;;;4.05;;
69030;SDS011;56083;48.774;8.942;2023-07-02T01:19:36;10.85;;;4.45;;
69030;SDS011;56083;48.774;8.942;2023-07-02T01:22:07;9.77;;;5.22;;
69030;SDS011;56083;48.774;8.942;2023-07-02T01:24:33;10.57;;;4.95;;
69030;SDS011;56083;48.774;8.942;2023-07-02T01:26:59;9.45;;;4.93;;
69030;SDS011;56083;48.774;8.942;2023-07-02T01:29:28;10.02;;;5.15;;
69030;SDS011;56083;48.774;8.942;2023-07-02T01:31:54;9.95;;;5.43;;
69030;SDS011;56083;48.774;8.942;2023-07-02T01:34:20;12.90;;;5.47;;
69030;SDS011;56083;48.774;8.942;2023-07-02T01:36:46;22.42;;;5.25;;
69030;SDS011;56083;48.774;8.942;2023-07-02T01:39:12;10.27;;;5.30;;
69030;SDS011;56083;48.774;8.942;2023-07-02T01:41:42;11.90;;;5.65;;
69030;SDS011;56083;48.774;8.942;2023-07-02T01:44:10;7.45;;;5.10;;
69030;SDS011;56083;48.774;8.942;2023-07-02T01:46:36;12.38;;;5.40;;
69030;SDS011;56083;48.774;8.942;2023-07-02T01:49:01;11.45;;;5.18;;
69030;SDS011;56083;48.774;8.942;2023-07-02T01:51:27;11.70;;;5.63;;
69030;SDS011;56083;48.774;8.942;2023-07-02T01:53:52;10.18;;;5.07;;
69030;SDS011;56083;48.774;8.942;2023-07-02T01:56:18;5.47;;;4.28;;
69030;SDS011;56083;48.774;8.942;2023-07-02T01:58:44;8.30;;;4.80;;
69030;SDS011;56083;48.774;8.942;2023-07-02T02:01:09;7.88;;;4.55;;
69030;SDS011;56083;48.774;8.942;2023-07-02T02:03:35;8.02;;;4.35;;
69030;SDS011;56083;48.774;8.942;2023-07-02T02:06:01;9.52;;;4.40;;
69030;SDS011;56083;48.774;8.942;2023-07-02T02:08:26;10.43;;;4.47;;
69030;SDS011;56083;48.774;8.942;2023-07-02T02:10:52;6.57;;;3.90;;
69030;SDS011;56083;48.774;8.942;2023-07-02T02:13:17;8.93;;;4.20;;
69030;SDS011;56083;48.774;8.942;2023-07-02T02:15:44;8.13;;;3.75;;
69030;SDS011;56083;48.774;8.942;2023-07-02T02:18:10;8.23;;;3.85;;
69030;SDS011;56083;48.774;8.942;2023-07-02T02:20:35;9.70;;;4.32;;
69030;SDS011;56083;48.774;8.942;2023-07-02T02:23:01;11.52;;;4.50;;
69030;SDS011;56083;48.774;8.942;2023-07-02T02:25:27;13.05;;;4.45;;
69030;SDS011;56083;48.774;8.942;2023-07-02T02:27:53;16.00;;;4.20;;
69030;SDS011;56083;48.774;8.942;2023-07-02T02:30:18;10.45;;;4.43;;
69030;SDS011;56083;48.774;8.942;2023-07-02T02:32:44;12.63;;;4.25;;
69030;SDS011;56083;48.774;8.942;2023-07-02T02:35:09;13.20;;;4.25;;
69030;SDS011;56083;48.774;8.942;2023-07-02T02:37:36;13.52;;;4.57;;
69030;SDS011;56083;48.774;8.942;2023-07-02T02:40:03;12.00;;;4.38;;
69030;SDS011;56083;48.774;8.942;2023-07-02T02:42:30;6.10;;;3.53;;
69030;SDS011;56083;48.774;8.942;2023-07-02T02:44:56;6.72;;;3.53;;
69030;SDS011;56083;48.774;8.942;2023-07-02T02:47:21;9.55;;;3.75;;
69030;SDS011;56083;48.774;8.942;2023-07-02T02:49:47;6.63;;;3.47;;
69030;SDS011;56083;48.774;8.942;2023-07-02T02:52:13;9.57;;;3.28;;
69030;SDS011;56083;48.774;8.942;2023-07-02T02:54:39;10.10;;;2.95;;
69030;SDS011;56083;48.774;8.942;2023-07-02T02:57:05;5.90;;;2.85;;
69030;SDS011;56083;48.774;8.942;2023-07-02T02:59:30;11.32;;;3.20;;
69030;SDS011;56083;48.774;8.942;2023-07-02T03:01:56;10.30;;;4.15;;
69030;SDS011;56083;48.774;8.942;2023-07-02T03:04:22;8.82;;;3.95;;
69030;SDS011;56083;48.774;8.942;2023-07-02T03:06:50;12.52;;;4.10;;
69030;SDS011;56083;48.774;8.942;2023-07-02T03:09:16;10.73;;;4.50;;
69030;SDS011;56083;48.774;8.942;2023-07-02T03:11:43;9.05;;;4.32;;
69030;SDS011;56083;48.774;8.942;2023-07-02T03:14:08;11.07;;;4.80;;
69030;SDS011;56083;48.774;8.942;2023-07-02T03:16:34;11.50;;;4.35;;
69030;SDS011;56083;48.774;8.942;2023-07-02T03:18:59;12.52;;;4.90;;
69030;SDS011;56083;48.774;8.942;2023-07-02T03:21:25;10.88;;;4.50;;
69030;SDS011;56083;48.774;8.942;2023-07-02T03:23:51;12.32;;;5.30;;
69030;SDS011;56083;48.774;8.942;2023-07-02T03:26:16;16.23;;;4.95;;
69030;SDS011;56083;48.774;8.942;2023-07-02T03:28:43;10.23;;;5.20;;
69030;SDS011;56083;48.774;8.942;2023-07-02T03:31:09;13.88;;;4.80;;
69030;SDS011;56083;48.774;8.942;2023-07-02T03:33:34;11.68;;;4.50;;
69030;SDS011;56083;48.774;8.942;2023-07-02T03:36:00;9.88;;;4.63;;
69030;SDS011;56083;48.774;8.942;2023-07-02T03:38:25;12.25;;;4.55;;
69030;SDS011;56083;48.774;8.942;2023-07-02T03:40:51;8.25;;;4.45;;
69030;SDS011;56083;48.774;8.942;2023-07-02T03:43:16;9.60;;;4.05;;
69030;SDS011;56083;48.774;8.942;2023-07-02T03:45:42;10.68;;;4.35;;
69030;SDS011;56083;48.774;8.942;2023-07-02T03:48:08;15.20;;;4.32;;
69030;SDS011;56083;48.774;8.942;2023-07-02T03:50:33;16.02;;;5.13;;
69030;SDS011;56083;48.774;8.942;2023-07-02T03:52:59;10.93;;;4.47;;
69030;SDS011;56083;48.774;8.942;2023-07-02T03:55:24;15.73;;;4.57;;
69030;SDS011;56083;48.774;8.942;2023-07-02T03:57:50;12.10;;;4.45;;
69030;SDS011;56083;48.774;8.942;2023-07-02T04:00:15;12.40;;;4.32;;
69030;SDS011;56083;48.774;8.942;2023-07-02T04:02:41;11.68;;;4.43;;
69030;SDS011;56083;48.774;8.942;2023-07-02T04:05:07;12.40;;;4.63;;
69030;SDS011;56083;48.774;8.942;2023-07-02T04:07:33;10.00;;;4.50;;
69030;SDS011;56083;48.774;8.942;2023-07-02T04:09:58;10.80;;;4.30;;
69030;SDS011;56083;48.774;8.942;2023-07-02T04:12:24;10.55;;;4.18;;
69030;SDS011;56083;48.774;8.942;2023-07-02T04:14:50;9.23;;;4.32;;
69030;SDS011;56083;48.774;8.942;2023-07-02T04:17:16;10.30;;;4.25;;
69030;SDS011;56083;48.774;8.942;2023-07-02T04:19:41;10.88;;;4.45;;
69030;SDS011;56083;48.774;8.942;2023-07-02T04:22:07;9.93;;;4.63;;
69030;SDS011;56083;48.774;8.942;2023-07-02T04:24:33;10.00;;;4.00;;
69030;SDS011;56083;48.774;8.942;2023-07-02T04:26:58;9.63;;;4.00;;
69030;SDS011;56083;48.774;8.942;2023-07-02T04:29:24;7.88;;;4.15;;
69030;SDS011;56083;48.774;8.942;2023-07-02T04:31:50;8.65;;;4.13;;
69030;SDS011;56083;48.774;8.942;2023-07-02T04:34:16;9.05;;;4.30;;
69030;SDS011;56083;48.774;8.942;2023-07-02T04:36:42;10.70;;;4.10;;
69030;SDS011;56083;48.774;8.942;2023-07-02T04:39:08;11.82;;;3.80;;
69030;SDS011;56083;48.774;8.942;2023-07-02T04:41:35;7.65;;;3.97;;
69030;SDS011;56083;48.774;8.942;2023-07-02T04:44:06;8.20;;;3.90;;
69030;SDS011;56083;48.774;8.942;2023-07-02T04:46:32;11.98;;;4.05;;
69030;SDS011;56083;48.774;8.942;2023-07-02T04:48:58;9.75;;;3.88;;
69030;SDS011;56083;48.774;8.942;2023-07-02T04:51:24;11.93;;;4.55;;
69030;SDS011;56083;48.774;8.942;2023-07-02T04:53:49;16.08;;;4.55;;
69030;SDS011;56083;48.774;8.942;2023-07-02T04:56:15;7.15;;;3.85;;
69030;SDS011;56083;48.774;8.942;2023-07-02T04:58:40;9.93;;;4.60;;
69030;SDS011;56083;48.774;8.942;2023-07-02T05:01:06;11.23;;;4.28;;
69030;SDS011;56083;48.774;8.942;2023-07-02T05:03:32;8.75;;;4.18;;
69030;SDS011;56083;48.774;8.942;2023-07-02T05:05:57;8.70;;;4.25;;
69030;SDS011;56083;48.774;8.942;2023-07-02T05:08:23;10.73;;;4.35;;
69030;SDS011;56083;48.774;8.942;2023-07-02T05:10:48;10.27;;;4.30;;
69030;SDS011;56083;48.774;8.942;2023-07-02T05:13:14;17.45;;;4.97;;
69030;SDS011;56083;48.774;8.942;2023-07-02T05:15:41;18.17;;;4.95;;
69030;SDS011;56083;48.774;8.942;2023-07-02T05:18:06;17.65;;;5.57;;
69030;SDS011;56083;48.774;8.942;2023-07-02T05:20:32;13.43;;;5.35;;
69030;SDS011;56083;48.774;8.942;2023-07-02T05:22:58;16.40;;;5.43;;
69030;SDS011;56083;48.774;8.942;2023-07-02T05:25:23;20.08;;;6.00;;
69030;SDS011;56083;48.774;8.942;2023-07-02T05:27:49;16.27;;;6.05;;
69030;SDS011;56083;48.774;8.942;2023-07-02T05:30:14;12.60;;;5.70;;
69030;SDS011;56083;48.774;8.942;2023-07-02T05:32:40;12.43;;;5.80;;
69030;SDS011;56083;48.774;8.942;2023-07-02T05:35:07;13.05;;;5.28;;
69030;SDS011;56083;48.774;8.942;2023-07-02T05:37:35;13.05;;;5.60;;
69030;SDS011;56083;48.774;8.942;2023-07-02T05:40:21;19.65;;;6.03;;
69030;SDS011;56083;48.774;8.942;2023-07-02T05:42:47;14.70;;;5.63;;
69030;SDS011;56083;48.774;8.942;2023-07-02T05:45:13;14.70;;;5.20;;
69030;SDS011;56083;48.774;8.942;2023-07-02T05:47:38;13.52;;;6.32;;
69030;SDS011;56083;48.774;8.942;2023-07-02T05:50:05;16.70;;;6.15;;
69030;SDS011;56083;48.774;8.942;2023-07-02T05:52:39;17.27;;;6.20;;
69030;SDS011;56083;48.774;8.942;2023-07-02T05:55:09;19.73;;;7.05;;
69030;SDS011;56083;48.774;8.942;2023-07-02T05:57:45;19.83;;;7.30;;
69030;SDS011;56083;48.774;8.942;2023-07-02T06:00:11;19.88;;;7.85;;
69030;SDS011;56083;48.774;8.942;2023-07-02T06:02:37;17.92;;;7.70;;
69030;SDS011;56083;48.774;8.942;2023-07-02T06:05:03;23.02;;;8.35;;
69030;SDS011;56083;48.774;8.942;2023-07-02T06:07:35;17.85;;;7.88;;
69030;SDS011;56083;48.774;8.942;2023-07-02T06:10:00;22.83;;;8.20;;
69030;SDS011;56083;48.774;8.942;2023-07-02T06:12:27;20.35;;;8.73;;
69030;SDS011;56083;48.774;8.942;2023-07-02T06:14:53;25.65;;;9.32;;
69030;SDS011;56083;48.774;8.942;2023-07-02T06:17:19;21.65;;;8.82;;
69030;SDS011;56083;48.774;8.942;2023-07-02T06:19:46;22.27;;;9.13;;
69030;SDS011;56083;48.774;8.942;2023-07-02T06:22:12;20.02;;;8.23;;
69030;SDS011;56083;48.774;8.942;2023-07-02T06:24:38;24.88;;;8.32;;
69030;SDS011;56083;48.774;8.942;2023-07-02T06:27:04;23.10;;;8.68;;
69030;SDS011;56083;48.774;8.942;2023-07-02T06:29:29;20.33;;;8.35;;
69030;SDS011;56083;48.774;8.942;2023-07-02T06:31:55;21.05;;;8.70;;
69030;SDS011;56083;48.774;8.942;2023-07-02T06:34:24;22.80;;;9.50;;
69030;SDS011;56083;48.774;8.942;2023-07-02T06:36:49;26.23;;;9.68;;
69030;SDS011;56083;48.774;8.942;2023-07-02T06:39:15;24.88;;;10.23;;
69030;SDS011;56083;48.774;8.942;2023-07-02T06:41:41;23.05;;;10.82;;
69030;SDS011;56083;48.774;8.942;2023-07-02T06:44:06;25.38;;;10.80;;
69030;SDS011;56083;48.774;8.942;2023-07-02T06:46:33;26.65;;;11.55;;
69030;SDS011;56083;48.774;8.942;2023-07-02T06:48:58;27.98;;;11.57;;
69030;SDS011;56083;48.774;8.942;2023-07-02T06:51:24;27.13;;;12.13;;
69030;SDS011;56083;48.774;8.942;2023-07-02T06:53:51;25.73;;;12.68;;
69030;SDS011;56083;48.774;8.942;2023-07-02T06:56:17;26.35;;;12.60;;
69030;SDS011;56083;48.774;8.942;2023-07-02T06:58:43;26.33;;;11.95;;
69030;SDS011;56083;48.774;8.942;2023-07-02T07:01:08;31.27;;;12.30;;
69030;SDS011;56083;48.774;8.942;2023-07-02T07:03:34;31.08;;;12.40;;
69030;SDS011;56083;48.774;8.942;2023-07-02T07:06:00;30.30;;;12.27;;
69030;SDS011;56083;48.774;8.942;2023-07-02T07:08:26;26.60;;;12.88;;
69030;SDS011;56083;48.774;8.942;2023-07-02T07:10:52;28.50;;;13.27;;
69030;SDS011;56083;48.774;8.942;2023-07-02T07:13:17;28.05;;;13.13;;
69030;SDS011;56083;48.774;8.942;2023-07-02T07:15:43;25.92;;;12.45;;
69030;SDS011;56083;48.774;8.942;2023-07-02T07:18:09;30.60;;;13.85;;
69030;SDS011;56083;48.774;8.942;2023-07-02T07:20:35;34.30;;;13.80;;
69030;SDS011;56083;48.774;8.942;2023-07-02T07:23:02;31.80;;;13.52;;
69030;SDS011;56083;48.774;8.942;2023-07-02T07:25:28;29.90;;;14.30;;
69030;SDS011;56083;48.774;8.942;2023-07-02T07:27:54;35.40;;;14.75;;
69030;SDS011;56083;48.774;8.942;2023-07-02T07:30:20;29.20;;;14.00;;
69030;SDS011;56083;48.774;8.942;2023-07-02T07:32:49;32.15;;;14.75;;
69030;SDS011;56083;48.774;8.942;2023-07-02T07:35:16;26.58;;;13.77;;
69030;SDS011;56083;48.774;8.942;2023-07-02T07:37:42;36.97;;;14.27;;
69030;SDS011;56083;48.774;8.942;2023-07-02T07:40:08;33.58;;;14.20;;
69030;SDS011;56083;48.774;8.942;2023-07-02T07:42:34;32.08;;;13.60;;
69030;SDS011;56083;48.774;8.942;2023-07-02T07:44:59;30.48;;;13.55;;
69030;SDS011;56083;48.774;8.942;2023-07-02T07:47:25;30.25;;;14.32;;
69030;SDS011;56083;48.774;8.942;2023-07-02T07:49:50;33.38;;;14.95;;
69030;SDS011;56083;48.774;8.942;2023-07-02T07:52:16;31.05;;;14.45;;
69030;SDS011;56083;48.774;8.942;2023-07-02T07:54:42;33.58;;;15.93;;
69030;SDS011;56083;48.774;8.942;2023-07-02T07:57:08;33.05;;;15.18;;
69030;SDS011;56083;48.774;8.942;2023-07-02T07:59:33;29.35;;;15.40;;
69030;SDS011;56083;48.774;8.942;2023-07-02T08:02:00;32.13;;;14.35;;
69030;SDS011;56083;48.774;8.942;2023-07-02T08:04:26;29.60;;;14.50;;
69030;SDS011;56083;48.774;8.942;2023-07-02T08:06:51;41.55;;;14.77;;
69030;SDS011;56083;48.774;8.942;2023-07-02T08:09:17;28.98;;;14.98;;
69030;SDS011;56083;48.774;8.942;2023-07-02T08:11:43;30.00;;;14.65;;
69030;SDS011;56083;48.774;8.942;2023-07-02T08:14:08;30.10;;;14.43;;
69030;SDS011;56083;48.774;8.942;2023-07-02T08:16:34;26.05;;;13.15;;
69030;SDS011;56083;48.774;8.942;2023-07-02T08:19:00;26.58;;;14.10;;
69030;SDS011;56083;48.774;8.942;2023-07-02T08:21:26;28.92;;;14.20;;
69030;SDS011;56083;48.774;8.942;2023-07-02T08:23:52;30.08;;;13.52;;
69030;SDS011;56083;48.774;8.942;2023-07-02T08:26:18;31.90;;;14.52;;
69030;SDS011;56083;48.774;8.942;2023-07-02T08:28:43;29.52;;;13.77;;
69030;SDS011;56083;48.774;8.942;2023-07-02T08:31:09;32.78;;;13.13;;
69030;SDS011;56083;48.774;8.942;2023-07-02T08:33:35;30.92;;;14.43;;
69030;SDS011;56083;48.774;8.942;2023-07-02T08:36:00;25.58;;;13.40;;
69030;SDS011;56083;48.774;8.942;2023-07-02T08:38:26;31.25;;;14.43;;
69030;SDS011;56083;48.774;8.942;2023-07-02T08:40:52;27.45;;;13.23;;
69030;SDS011;56083;48.774;8.942;2023-07-02T08:43:17;28.73;;;13.55;;
69030;SDS011;56083;48.774;8.942;2023-07-02T08:45:43;27.10;;;13.52;;
69030;SDS011;56083;48.774;8.942;2023-07-02T08:48:10;26.75;;;13.20;;
69030;SDS011;56083;48.774;8.942;2023-07-02T08:50:36;28.40;;;13.48;;
69030;SDS011;56083;48.774;8.942;2023-07-02T08:53:02;25.75;;;13.23;;
69030;SDS011;56083;48.774;8.942;2023-07-02T08:55:28;25.88;;;13.57;;
69030;SDS011;56083;48.774;8.942;2023-07-02T08:57:55;29.80;;;13.00;;
69030;SDS011;56083;48.774;8.942;2023-07-02T09:00:24;25.70;;;12.93;;
69030;SDS011;56083;48.774;8.942;2023-07-02T09:02:50;25.33;;;13.93;;
69030;SDS011;56083;48.774;8.942;2023-07-02T09:05:16;24.08;;;13.27;;
69030;SDS011;56083;48.774;8.942;2023-07-02T09:07:45;30.02;;;13.50;;
69030;SDS011;56083;48.774;8.942;2023-07-02T09:10:25;25.80;;;13.00;;
69030;SDS011;56083;48.774;8.942;2023-07-02T09:13:02;28.40;;;13.38;;
69030;SDS011;56083;48.774;8.942;2023-07-02T09:15:39;29.67;;;13.60;;
69030;SDS011;56083;48.774;8.942;2023-07-02T09:20:56;22.65;;;12.57;;
69030;SDS011;56083;48.774;8.942;2023-07-02T09:23:21;25.20;;;13.07;;
69030;SDS011;56083;48.774;8.942;2023-07-02T09:26:00;26.80;;;13.43;;
69030;SDS011;56083;48.774;8.942;2023-07-02T09:28:27;25.65;;;12.52;;
69030;SDS011;56083;48.774;8.942;2023-07-02T09:31:18;26.00;;;13.13;;
69030;SDS011;56083;48.774;8.942;2023-07-02T09:33:44;25.77;;;12.60;;
69030;SDS011;56083;48.774;8.942;2023-07-02T09:36:10;26.48;;;11.95;;
69030;SDS011;56083;48.774;8.942;2023-07-02T09:38:36;26.00;;;12.20;;
69030;SDS011;56083;48.774;8.942;2023-07-02T09:41:04;23.38;;;12.65;;
69030;SDS011;56083;48.774;8.942;2023-07-02T09:43:36;22.10;;;12.18;;
69030;SDS011;56083;48.774;8.942;2023-07-02T09:46:02;21.98;;;11.90;;
69030;SDS011;56083;48.774;8.942;2023-07-02T09:48:28;21.88;;;12.25;;
69030;SDS011;56083;48.774;8.942;2023-07-02T09:50:58;25.00;;;12.02;;
69030;SDS011;56083;48.774;8.942;2023-07-02T09:53:26;27.55;;;13.20;;
69030;SDS011;56083;48.774;8.942;2023-07-02T09:55:52;28.05;;;13.93;;
69030;SDS011;56083;48.774;8.942;2023-07-02T09:58:18;24.58;;;13.50;;
69030;SDS011;56083;48.774;8.942;2023-07-02T10:00:44;27.58;;;13.68;;
69030;SDS011;56083;48.774;8.942;2023-07-02T10:03:11;24.67;;;13.43;;
69030;SDS011;56083;48.774;8.942;2023-07-02T10:05:36;27.67;;;13.40;;
69030;SDS011;56083;48.774;8.942;2023-07-02T10:08:12;24.75;;;13.65;;
69030;SDS011;56083;48.774;8.942;2023-07-02T10:10:42;30.02;;;14.23;;
69030;SDS011;56083;48.774;8.942;2023-07-02T10:13:08;26.10;;;13.65;;
69030;SDS011;56083;48.774;8.942;2023-07-02T10:15:38;27.58;;;13.75;;
69030;SDS011;56083;48.774;8.942;2023-07-02T10:18:05;29.23;;;13.65;;
69030;SDS011;56083;48.774;8.942;2023-07-02T10:20:34;26.08;;;14.05;;
69030;SDS011;56083;48.774;8.942;2023-07-02T10:23:17;31.53;;;13.80;;
69030;SDS011;56083;48.774;8.942;2023-07-02T10:25:44;24.13;;;13.52;;
69030;SDS011;56083;48.774;8.942;2023-07-02T10:28:19;23.77;;;13.05;;
69030;SDS011;56083;48.774;8.942;2023-07-02T10:30:47;23.88;;;13.57;;
69030;SDS011;56083;48.774;8.942;2023-07-02T10:33:16;24.38;;;13.48;;
69030;SDS011;56083;48.774;8.942;2023-07-02T10:35:45;25.23;;;13.63;;
69030;SDS011;56083;48.774;8.942;2023-07-02T10:38:23;21.70;;;12.77;;
69030;SDS011;56083;48.774;8.942;2023-07-02T10:40:55;28.27;;;13.57;;
69030;SDS011;56083;48.774;8.942;2023-07-02T10:43:29;24.52;;;13.90;;
69030;SDS011;56083;48.774;8.942;2023-07-02T10:45:58;27.03;;;14.47;;
69030;SDS011;56083;48.774;8.942;2023-07-02T10:48:25;22.65;;;13.90;;
69030;SDS011;56083;48.774;8.942;2023-07-02T10:50:54;24.92;;;13.82;;
69030;SDS011;56083;48.774;8.942;2023-07-02T10:53:21;24.25;;;13.48;;
69030;SDS011;56083;48.774;8.942;2023-07-02T10:55:53;25.15;;;14.23;;
69030;SDS011;56083;48.774;8.942;2023-07-02T10:58:22;21.85;;;13.18;;
69030;SDS011;56083;48.774;8.942;2023-07-02T11:00:52;24.48;;;14.23;;
69030;SDS011;56083;48.774;8.942;2023-07-02T11:03:22;21.17;;;12.98;;
69030;SDS011;56083;48.774;8.942;2023-07-02T11:06:01;28.20;;;13.15;;
69030;SDS011;56083;48.774;8.942;2023-07-02T11:08:39;23.25;;;13.27;;
69030;SDS011;56083;48.774;8.942;2023-07-02T11:11:07;22.00;;;12.60;;
69030;SDS011;56083;48.774;8.942;2023-07-02T11:13:33;24.42;;;13.82;;
69030;SDS011;56083;48.774;8.942;2023-07-02T11:15:59;22.23;;;13.00;;
69030;SDS011;56083;48.774;8.942;2023-07-02T11:18:29;25.45;;;13.88;;
69030;SDS011;56083;48.774;8.942;2023-07-02T11:20:58;25.58;;;13.88;;
69030;SDS011;56083;48.774;8.942;2023-07-02T11:23:37;27.45;;;15.23;;
69030;SDS011;56083;48.774;8.942;2023-07-02T11:26:04;23.92;;;14.25;;
69030;SDS011;56083;48.774;8.942;2023-07-02T11:28:30;25.10;;;14.65;;
69030;SDS011;56083;48.774;8.942;2023-07-02T11:30:59;25.73;;;13.90;;
69030;SDS011;56083;48.774;8.942;2023-07-02T11:36:06;22.15;;;13.27;;
69030;SDS011;56083;48.774;8.942;2023-07-02T11:38:44;25.77;;;13.57;;
69030;SDS011;56083;48.774;8.942;2023-07-02T11:41:13;23.70;;;13.77;;
69030;SDS011;56083;48.774;8.942;2023-07-02T11:43:38;24.50;;;13.20;;
69030;SDS011;56083;48.774;8.942;2023-07-02T11:46:04;23.83;;;13.63;;
69030;SDS011;56083;48.774;8.942;2023-07-02T11:48:30;24.95;;;14.05;;
69030;SDS011;56083;48.774;8.942;2023-07-02T11:50:56;28.80;;;14.05;;
69030;SDS011;56083;48.774;8.942;2023-07-02T11:53:23;24.40;;;14.23;;
69030;SDS011;56083;48.774;8.942;2023-07-02T11:55:49;23.45;;;13.73;;
69030;SDS011;56083;48.774;8.942;2023-07-02T11:58:15;23.92;;;13.90;;
69030;SDS011;56083;48.774;8.942;2023-07-02T12:00:45;25.50;;;14.00;;
69030;SDS011;56083;48.774;8.942;2023-07-02T12:03:12;22.10;;;13.43;;
69030;SDS011;56083;48.774;8.942;2023-07-02T12:05:47;23.67;;;13.40;;
69030;SDS011;56083;48.774;8.942;2023-07-02T12:08:16;23.95;;;13.15;;
69030;SDS011;56083;48.774;8.942;2023-07-02T12:10:44;23.70;;;13.35;;
69030;SDS011;56083;48.774;8.942;2023-07-02T12:13:11;22.67;;;14.07;;
69030;SDS011;56083;48.774;8.942;2023-07-02T12:15:38;23.92;;;13.27;;
69030;SDS011;56083;48.774;8.942;2023-07-02T12:18:04;23.33;;;13.65;;
69030;SDS011;56083;48.774;8.942;2023-07-02T12:20:30;23.30;;;13.32;;
69030;SDS011;56083;48.774;8.942;2023-07-02T12:22:57;23.88;;;13.27;;
69030;SDS011;56083;48.774;8.942;2023-07-02T12:25:23;21.63;;;13.35;;
69030;SDS011;56083;48.774;8.942;2023-07-02T12:27:49;24.00;;;14.18;;
69030;SDS011;56083;48.774;8.942;2023-07-02T12:30:16;23.45;;;14.00;;
69030;SDS011;56083;48.774;8.942;2023-07-02T12:32:42;22.98;;;14.43;;
69030;SDS011;56083;48.774;8.942;2023-07-02T12:35:09;20.88;;;14.02;;
69030;SDS011;56083;48.774;8.942;2023-07-02T12:37:46;23.20;;;14.10;;
69030;SDS011;56083;48.774;8.942;2023-07-02T12:40:13;24.05;;;14.13;;
69030;SDS011;56083;48.774;8.942;2023-07-02T12:42:40;30.13;;;14.30;;
69030;SDS011;56083;48.774;8.942;2023-07-02T12:45:08;22.70;;;14.38;;
69030;SDS011;56083;48.774;8.942;2023-07-02T12:47:45;21.80;;;13.45;;
69030;SDS011;56083;48.774;8.942;2023-07-02T12:50:12;29.05;;;14.80;;
69030;SDS011;56083;48.774;8.942;2023-07-02T12:52:39;21.95;;;13.35;;
69030;SDS011;56083;48.774;8.942;2023-07-02T12:55:04;29.90;;;14.57;;
69030;SDS011;56083;48.774;8.942;2023-07-02T12:57:30;24.92;;;14.32;;
69030;SDS011;56083;48.774;8.942;2023-07-02T12:59:56;24.65;;;13.75;;
69030;SDS011;56083;48.774;8.942;2023-07-02T13:02:38;24.27;;;14.02;;
69030;SDS011;56083;48.774;8.942;2023-07-02T13:05:07;23.02;;;13.25;;
69030;SDS011;56083;48.774;8.942;2023-07-02T13:07:38;20.92;;;13.52;;
69030;SDS011;56083;48.774;8.942;2023-07-02T13:10:07;24.10;;;13.55;;
69030;SDS011;56083;48.774;8.942;2023-07-02T13:12:39;23.50;;;12.85;;
69030;SDS011;56083;48.774;8.942;2023-07-02T13:15:11;19.50;;;13.15;;
69030;SDS011;56083;48.774;8.942;2023-07-02T13:17:37;22.02;;;13.38;;
69030;SDS011;56083;48.774;8.942;2023-07-02T13:20:03;23.08;;;12.73;;
69030;SDS011;56083;48.774;8.942;2023-07-02T13:22:31;23.00;;;13.90;;
69030;SDS011;56083;48.774;8.942;2023-07-02T13:24:57;18.70;;;12.75;;
69030;SDS011;56083;48.774;8.942;2023-07-02T13:27:23;24.05;;;13.45;;
69030;SDS011;56083;48.774;8.942;2023-07-02T13:29:48;21.27;;;13.52;;
69030;SDS011;56083;48.774;8.942;2023-07-02T13:32:14;22.75;;;13.65;;
69030;SDS011;56083;48.774;8.942;2023-07-02T13:34:40;23.20;;;14.05;;
69030;SDS011;56083;48.774;8.942;2023-07-02T13:37:05;26.05;;;13.32;;
69030;SDS011;56083;48.774;8.942;2023-07-02T13:39:31;23.73;;;14.18;;
69030;SDS011;56083;48.774;8.942;2023-07-02T13:42:00;25.10;;;14.43;;
69030;SDS011;56083;48.774;8.942;2023-07-02T13:44:26;24.38;;;12.93;;
69030;SDS011;56083;48.774;8.942;2023-07-02T13:46:52;25.15;;;13.95;;
69030;SDS011;56083;48.774;8.942;2023-07-02T13:49:18;23.00;;;13.60;;
69030;SDS011;56083;48.774;8.942;2023-07-02T13:51:46;26.13;;;13.35;;
69030;SDS011;56083;48.774;8.942;2023-07-02T13:54:14;21.67;;;12.80;;
69030;SDS011;56083;48.774;8.942;2023-07-02T13:56:40;22.77;;;13.32;;
69030;SDS011;56083;48.774;8.942;2023-07-02T13:59:06;22.08;;;13.10;;
69030;SDS011;56083;48.774;8.942;2023-07-02T14:01:41;30.77;;;13.75;;
69030;SDS011;56083;48.774;8.942;2023-07-02T14:07:16;23.73;;;13.32;;
69030;SDS011;56083;48.774;8.942;2023-07-02T14:09:45;19.92;;;12.90;;
69030;SDS011;56083;48.774;8.942;2023-07-02T14:12:11;21.33;;;12.95;;
69030;SDS011;56083;48.774;8.942;2023-07-02T14:14:38;20.20;;;12.77;;
69030;SDS011;56083;48.774;8.942;2023-07-02T14:17:03;27.05;;;13.60;;
69030;SDS011;56083;48.774;8.942;2023-07-02T14:19:30;23.40;;;13.32;;
69030;SDS011;56083;48.774;8.942;2023-07-02T14:22:06;32.95;;;13.52;;
69030;SDS011;56083;48.774;8.942;2023-07-02T14:24:33;21.50;;;12.20;;
69030;SDS011;56083;48.774;8.942;2023-07-02T14:27:06;23.45;;;13.48;;
69030;SDS011;56083;48.774;8.942;2023-07-02T14:29:33;26.90;;;14.13;;
69030;SDS011;56083;48.774;8.942;2023-07-02T14:31:59;22.90;;;13.75;;
69030;SDS011;56083;48.774;8.942;2023-07-02T14:34:25;24.30;;;13.05;;
69030;SDS011;56083;48.774;8.942;2023-07-02T14:36:50;24.65;;;13.98;;
69030;SDS011;56083;48.774;8.942;2023-07-02T14:39:16;24.08;;;13.70;;